sensor_id;sensor_type;location;lat;lon;timestamp;temperature;humidity
23579;DHT22;11967;50.852;4.400;2022-12-18T00:00:41;5.50;99.90
23579;DHT22;11967;50.852;4.400;2022-12-18T00:03:07;5.60;99.90
23579;DHT22;11967;50.852;4.400;2022-12-18T00:05:33;5.70;99.90
23579;DHT22;11967;50.852;4.400;2022-12-18T00:07:59;5.60;99.90
23579;DHT22;11967;50.852;4.400;2022-12-18T00:10:25;5.50;99.90
23579;DHT22;11967;50.852;4.400;2022-12-18T00:12:51;5.50;99.90
23579;DHT22;11967;50.852;4.400;2022-12-18T00:15:17;5.60;99.90
23579;DHT22;11967;50.852;4.400;2022-12-18T00:17:42;5.60;99.90
23579;DHT22;11967;50.852;4.400;2022-12-18T00:20:08;5.60;99.90
23579;DHT22;11967;50.852;4.400;2022-12-18T00:22:34;5.50;99.90
23579;DHT22;11967;50.852;4.400;2022-12-18T00:25:00;5.60;99.90
23579;DHT22;11967;50.852;4.400;2022-12-18T00:27:25;5.60;99.90
23579;DHT22;11967;50.852;4.400;2022-12-18T00:29:51;5.60;99.90
23579;DHT22;11967;50.852;4.400;2022-12-18T00:32:16;5.70;99.90
23579;DHT22;11967;50.852;4.400;2022-12-18T00:34:42;5.50;99.90
23579;DHT22;11967;50.852;4.400;2022-12-18T00:37:08;5.40;99.90
23579;DHT22;11967;50.852;4.400;2022-12-18T00:39:33;5.50;99.90
23579;DHT22;11967;50.852;4.400;2022-12-18T00:41:59;5.30;99.90
23579;DHT22;11967;50.852;4.400;2022-12-18T00:44:43;5.30;99.90
23579;DHT22;11967;50.852;4.400;2022-12-18T00:47:08;5.30;99.90
23579;DHT22;11967;50.852;4.400;2022-12-18T00:49:34;5.20;99.90
23579;DHT22;11967;50.852;4.400;2022-12-18T00:52:00;5.10;99.90
23579;DHT22;11967;50.852;4.400;2022-12-18T00:54:25;5.10;99.90
23579;DHT22;11967;50.852;4.400;2022-12-18T00:56:51;5.00;99.90
23579;DHT22;11967;50.852;4.400;2022-12-18T00:59:17;4.90;99.90
23579;DHT22;11967;50.852;4.400;2022-12-18T01:01:43;5.00;99.90
23579;DHT22;11967;50.852;4.400;2022-12-18T01:04:10;4.90;99.90
23579;DHT22;11967;50.852;4.400;2022-12-18T01:06:35;4.90;99.90
23579;DHT22;11967;50.852;4.400;2022-12-18T01:09:02;4.90;99.90
23579;DHT22;11967;50.852;4.400;2022-12-18T01:11:28;4.80;99.90
23579;DHT22;11967;50.852;4.400;2022-12-18T01:13:54;4.90;99.90
23579;DHT22;11967;50.852;4.400;2022-12-18T01:16:22;4.90;99.90
23579;DHT22;11967;50.852;4.400;2022-12-18T01:18:51;5.00;99.90
23579;DHT22;11967;50.852;4.400;2022-12-18T01:21:17;5.00;99.90
23579;DHT22;11967;50.852;4.400;2022-12-18T01:23:43;5.00;99.90
23579;DHT22;11967;50.852;4.400;2022-12-18T01:26:11;4.90;99.90
23579;DHT22;11967;50.852;4.400;2022-12-18T01:28:37;4.90;99.90
23579;DHT22;11967;50.852;4.400;2022-12-18T01:33:37;4.90;99.90
23579;DHT22;11967;50.852;4.400;2022-12-18T01:36:03;4.90;99.90
23579;DHT22;11967;50.852;4.400;2022-12-18T01:38:28;4.90;99.90
23579;DHT22;11967;50.852;4.400;2022-12-18T01:41:01;5.00;99.90
23579;DHT22;11967;50.852;4.400;2022-12-18T01:46:12;4.90;99.90
23579;DHT22;11967;50.852;4.400;2022-12-18T01:48:39;5.00;99.90
23579;DHT22;11967;50.852;4.400;2022-12-18T01:51:07;5.10;99.90
23579;DHT22;11967;50.852;4.400;2022-12-18T01:53:33;5.00;99.90
23579;DHT22;11967;50.852;4.400;2022-12-18T01:55:59;5.10;99.90
23579;DHT22;11967;50.852;4.400;2022-12-18T02:01:04;5.00;99.90
23579;DHT22;11967;50.852;4.400;2022-12-18T02:03:29;4.90;99.90
23579;DHT22;11967;50.852;4.400;2022-12-18T02:06:39;4.90;99.90
23579;DHT22;11967;50.852;4.400;2022-12-18T02:09:02;4.90;99.90
23579;DHT22;11967;50.852;4.400;2022-12-18T02:14:43;5.10;99.90
23579;DHT22;11967;50.852;4.400;2022-12-18T02:28:20;5.00;99.90
23579;DHT22;11967;50.852;4.400;2022-12-18T02:30:49;4.90;99.90
23579;DHT22;11967;50.852;4.400;2022-12-18T02:33:15;5.10;99.90
23579;DHT22;11967;50.852;4.400;2022-12-18T02:35:43;5.00;99.90
23579;DHT22;11967;50.852;4.400;2022-12-18T02:38:12;4.90;99.90
23579;DHT22;11967;50.852;4.400;2022-12-18T02:40:38;4.80;99.90
23579;DHT22;11967;50.852;4.400;2022-12-18T02:43:14;4.80;99.90
23579;DHT22;11967;50.852;4.400;2022-12-18T02:45:52;4.80;99.90
23579;DHT22;11967;50.852;4.400;2022-12-18T02:48:25;4.70;99.90
23579;DHT22;11967;50.852;4.400;2022-12-18T02:53:38;4.70;99.90
23579;DHT22;11967;50.852;4.400;2022-12-18T02:56:19;4.60;99.90
23579;DHT22;11967;50.852;4.400;2022-12-18T03:01:24;4.60;99.90
23579;DHT22;11967;50.852;4.400;2022-12-18T03:04:00;4.60;99.90
23579;DHT22;11967;50.852;4.400;2022-12-18T03:06:28;4.70;99.90
23579;DHT22;11967;50.852;4.400;2022-12-18T03:08:59;4.60;99.90
23579;DHT22;11967;50.852;4.400;2022-12-18T03:11:29;4.50;99.90
23579;DHT22;11967;50.852;4.400;2022-12-18T03:14:16;4.40;99.90
23579;DHT22;11967;50.852;4.400;2022-12-18T03:16:43;4.30;99.90
23579;DHT22;11967;50.852;4.400;2022-12-18T03:19:19;4.40;99.90
23579;DHT22;11967;50.852;4.400;2022-12-18T03:21:48;4.50;99.90
23579;DHT22;11967;50.852;4.400;2022-12-18T03:24:15;4.40;99.90
23579;DHT22;11967;50.852;4.400;2022-12-18T03:26:44;4.20;99.90
23579;DHT22;11967;50.852;4.400;2022-12-18T03:29:45;4.10;99.90
23579;DHT22;11967;50.852;4.400;2022-12-18T03:32:16;4.10;99.90
23579;DHT22;11967;50.852;4.400;2022-12-18T03:34:46;4.10;99.90
23579;DHT22;11967;50.852;4.400;2022-12-18T03:37:12;4.20;99.90
23579;DHT22;11967;50.852;4.400;2022-12-18T03:39:38;4.10;99.90
23579;DHT22;11967;50.852;4.400;2022-12-18T03:42:08;4.10;99.90
23579;DHT22;11967;50.852;4.400;2022-12-18T03:50:16;4.10;99.90
23579;DHT22;11967;50.852;4.400;2022-12-18T03:52:59;4.10;99.90
23579;DHT22;11967;50.852;4.400;2022-12-18T03:55:27;4.20;99.90
23579;DHT22;11967;50.852;4.400;2022-12-18T03:57:54;4.20;99.90
23579;DHT22;11967;50.852;4.400;2022-12-18T04:00:20;4.20;99.90
23579;DHT22;11967;50.852;4.400;2022-12-18T04:02:51;4.10;99.90
23579;DHT22;11967;50.852;4.400;2022-12-18T04:05:18;3.90;99.90
23579;DHT22;11967;50.852;4.400;2022-12-18T04:07:47;4.00;99.90
23579;DHT22;11967;50.852;4.400;2022-12-18T04:10:14;4.10;99.90
23579;DHT22;11967;50.852;4.400;2022-12-18T04:12:41;4.00;99.90
23579;DHT22;11967;50.852;4.400;2022-12-18T04:15:08;4.00;99.90
23579;DHT22;11967;50.852;4.400;2022-12-18T04:17:34;4.00;99.90
23579;DHT22;11967;50.852;4.400;2022-12-18T04:19:59;4.00;99.90
23579;DHT22;11967;50.852;4.400;2022-12-18T04:22:25;3.90;99.90
23579;DHT22;11967;50.852;4.400;2022-12-18T04:24:50;3.90;99.90
23579;DHT22;11967;50.852;4.400;2022-12-18T04:27:16;3.90;99.90
23579;DHT22;11967;50.852;4.400;2022-12-18T04:29:42;3.90;99.90
23579;DHT22;11967;50.852;4.400;2022-12-18T04:32:08;3.70;99.90
23579;DHT22;11967;50.852;4.400;2022-12-18T04:34:34;3.80;99.90
23579;DHT22;11967;50.852;4.400;2022-12-18T04:36:59;3.90;99.90
23579;DHT22;11967;50.852;4.400;2022-12-18T04:39:25;4.10;99.90
23579;DHT22;11967;50.852;4.400;2022-12-18T04:41:50;3.90;99.90
23579;DHT22;11967;50.852;4.400;2022-12-18T04:44:16;4.00;99.90
23579;DHT22;11967;50.852;4.400;2022-12-18T04:46:42;4.10;99.90
23579;DHT22;11967;50.852;4.400;2022-12-18T04:49:08;4.00;99.90
23579;DHT22;11967;50.852;4.400;2022-12-18T04:51:36;4.20;99.90
23579;DHT22;11967;50.852;4.400;2022-12-18T04:54:02;4.10;99.90
23579;DHT22;11967;50.852;4.400;2022-12-18T04:56:30;4.10;99.90
23579;DHT22;11967;50.852;4.400;2022-12-18T04:58:55;4.10;99.90
23579;DHT22;11967;50.852;4.400;2022-12-18T05:01:21;4.10;99.90
23579;DHT22;11967;50.852;4.400;2022-12-18T05:03:46;4.10;99.90
23579;DHT22;11967;50.852;4.400;2022-12-18T05:06:12;4.10;99.90
23579;DHT22;11967;50.852;4.400;2022-12-18T05:08:38;4.10;99.90
23579;DHT22;11967;50.852;4.400;2022-12-18T05:11:05;4.10;99.90
23579;DHT22;11967;50.852;4.400;2022-12-18T05:13:31;4.20;99.90
23579;DHT22;11967;50.852;4.400;2022-12-18T05:15:57;4.30;99.90
23579;DHT22;11967;50.852;4.400;2022-12-18T05:18:24;4.20;99.90
23579;DHT22;11967;50.852;4.400;2022-12-18T05:20:51;4.00;99.90
23579;DHT22;11967;50.852;4.400;2022-12-18T05:23:18;4.10;99.90
23579;DHT22;11967;50.852;4.400;2022-12-18T05:25:56;4.00;99.90
23579;DHT22;11967;50.852;4.400;2022-12-18T05:28:24;4.00;99.90
23579;DHT22;11967;50.852;4.400;2022-12-18T05:30:56;4.00;99.90
23579;DHT22;11967;50.852;4.400;2022-12-18T05:33:24;4.10;99.90
23579;DHT22;11967;50.852;4.400;2022-12-18T05:35:54;4.00;99.90
23579;DHT22;11967;50.852;4.400;2022-12-18T05:38:22;4.00;99.90
23579;DHT22;11967;50.852;4.400;2022-12-18T05:40:48;3.90;99.90
23579;DHT22;11967;50.852;4.400;2022-12-18T05:43:15;3.80;99.90
23579;DHT22;11967;50.852;4.400;2022-12-18T05:45:41;3.70;99.90
23579;DHT22;11967;50.852;4.400;2022-12-18T05:48:08;3.70;99.90
23579;DHT22;11967;50.852;4.400;2022-12-18T05:50:39;3.80;99.90
23579;DHT22;11967;50.852;4.400;2022-12-18T05:53:05;3.70;99.90
23579;DHT22;11967;50.852;4.400;2022-12-18T05:55:35;3.90;99.90
23579;DHT22;11967;50.852;4.400;2022-12-18T05:58:02;3.80;99.90
23579;DHT22;11967;50.852;4.400;2022-12-18T06:00:28;3.80;99.90
23579;DHT22;11967;50.852;4.400;2022-12-18T06:02:54;3.80;99.90
23579;DHT22;11967;50.852;4.400;2022-12-18T06:05:19;3.90;99.90
23579;DHT22;11967;50.852;4.400;2022-12-18T06:07:45;4.00;99.90
23579;DHT22;11967;50.852;4.400;2022-12-18T06:10:11;3.70;99.90
23579;DHT22;11967;50.852;4.400;2022-12-18T06:12:37;3.70;99.90
23579;DHT22;11967;50.852;4.400;2022-12-18T06:15:03;3.80;99.90
23579;DHT22;11967;50.852;4.400;2022-12-18T06:17:32;4.00;99.90
23579;DHT22;11967;50.852;4.400;2022-12-18T06:19:58;4.00;99.90
23579;DHT22;11967;50.852;4.400;2022-12-18T06:22:24;4.10;99.90
23579;DHT22;11967;50.852;4.400;2022-12-18T06:24:49;4.10;99.90
23579;DHT22;11967;50.852;4.400;2022-12-18T06:27:15;3.90;99.90
23579;DHT22;11967;50.852;4.400;2022-12-18T06:29:41;3.90;99.90
23579;DHT22;11967;50.852;4.400;2022-12-18T06:32:07;3.80;99.90
23579;DHT22;11967;50.852;4.400;2022-12-18T06:34:32;3.80;99.90
23579;DHT22;11967;50.852;4.400;2022-12-18T06:36:58;3.80;99.90
23579;DHT22;11967;50.852;4.400;2022-12-18T06:39:24;3.70;99.90
23579;DHT22;11967;50.852;4.400;2022-12-18T06:41:50;3.70;99.90
23579;DHT22;11967;50.852;4.400;2022-12-18T06:44:16;3.70;99.90
23579;DHT22;11967;50.852;4.400;2022-12-18T06:46:41;3.90;99.90
23579;DHT22;11967;50.852;4.400;2022-12-18T06:49:07;4.00;99.90
23579;DHT22;11967;50.852;4.400;2022-12-18T06:51:34;3.90;99.90
23579;DHT22;11967;50.852;4.400;2022-12-18T06:54:00;3.90;99.90
23579;DHT22;11967;50.852;4.400;2022-12-18T06:56:25;3.90;99.90
23579;DHT22;11967;50.852;4.400;2022-12-18T06:58:51;3.90;99.90
23579;DHT22;11967;50.852;4.400;2022-12-18T07:01:17;3.90;99.90
23579;DHT22;11967;50.852;4.400;2022-12-18T07:03:43;3.90;99.90
23579;DHT22;11967;50.852;4.400;2022-12-18T07:06:17;3.90;99.90
23579;DHT22;11967;50.852;4.400;2022-12-18T07:08:44;4.00;99.90
23579;DHT22;11967;50.852;4.400;2022-12-18T07:11:10;4.00;99.90
23579;DHT22;11967;50.852;4.400;2022-12-18T07:13:35;4.10;99.90
23579;DHT22;11967;50.852;4.400;2022-12-18T07:16:09;3.90;99.90
23579;DHT22;11967;50.852;4.400;2022-12-18T07:18:35;4.00;99.90
23579;DHT22;11967;50.852;4.400;2022-12-18T07:21:06;3.90;99.90
23579;DHT22;11967;50.852;4.400;2022-12-18T07:23:33;3.80;99.90
23579;DHT22;11967;50.852;4.400;2022-12-18T07:26:06;3.90;99.90
23579;DHT22;11967;50.852;4.400;2022-12-18T07:28:32;3.80;99.90
23579;DHT22;11967;50.852;4.400;2022-12-18T07:31:02;3.80;99.90
23579;DHT22;11967;50.852;4.400;2022-12-18T07:33:29;3.80;99.90
23579;DHT22;11967;50.852;4.400;2022-12-18T07:35:55;3.90;99.90
23579;DHT22;11967;50.852;4.400;2022-12-18T07:38:20;4.10;99.90
23579;DHT22;11967;50.852;4.400;2022-12-18T07:40:46;4.10;99.90
23579;DHT22;11967;50.852;4.400;2022-12-18T07:43:12;4.00;99.90
23579;DHT22;11967;50.852;4.400;2022-12-18T07:45:37;3.90;99.90
23579;DHT22;11967;50.852;4.400;2022-12-18T07:48:03;3.90;99.90
23579;DHT22;11967;50.852;4.400;2022-12-18T07:50:28;3.80;99.90
23579;DHT22;11967;50.852;4.400;2022-12-18T07:52:54;3.70;99.90
23579;DHT22;11967;50.852;4.400;2022-12-18T07:55:19;3.70;99.90
23579;DHT22;11967;50.852;4.400;2022-12-18T07:57:45;3.80;99.90
23579;DHT22;11967;50.852;4.400;2022-12-18T08:00:11;3.80;99.90
23579;DHT22;11967;50.852;4.400;2022-12-18T08:02:37;3.90;99.90
23579;DHT22;11967;50.852;4.400;2022-12-18T08:05:03;3.80;99.90
23579;DHT22;11967;50.852;4.400;2022-12-18T08:07:29;3.70;99.90
23579;DHT22;11967;50.852;4.400;2022-12-18T08:09:54;3.80;99.90
23579;DHT22;11967;50.852;4.400;2022-12-18T08:12:21;3.80;99.90
23579;DHT22;11967;50.852;4.400;2022-12-18T08:14:46;3.90;99.90
23579;DHT22;11967;50.852;4.400;2022-12-18T08:17:12;3.90;99.90
23579;DHT22;11967;50.852;4.400;2022-12-18T08:19:38;3.90;99.90
23579;DHT22;11967;50.852;4.400;2022-12-18T08:22:03;4.00;99.90
23579;DHT22;11967;50.852;4.400;2022-12-18T08:24:29;4.00;99.90
23579;DHT22;11967;50.852;4.400;2022-12-18T08:26:54;3.90;99.90
23579;DHT22;11967;50.852;4.400;2022-12-18T08:29:22;3.80;99.90
23579;DHT22;11967;50.852;4.400;2022-12-18T08:31:48;3.80;99.90
23579;DHT22;11967;50.852;4.400;2022-12-18T08:34:13;3.80;99.90
23579;DHT22;11967;50.852;4.400;2022-12-18T08:36:40;3.80;99.90
23579;DHT22;11967;50.852;4.400;2022-12-18T08:39:05;3.90;99.90
23579;DHT22;11967;50.852;4.400;2022-12-18T08:41:31;3.90;99.90
23579;DHT22;11967;50.852;4.400;2022-12-18T08:43:56;4.00;99.90
23579;DHT22;11967;50.852;4.400;2022-12-18T08:46:42;4.00;99.90
23579;DHT22;11967;50.852;4.400;2022-12-18T08:49:09;4.10;99.90
23579;DHT22;11967;50.852;4.400;2022-12-18T08:51:35;4.10;99.90
23579;DHT22;11967;50.852;4.400;2022-12-18T08:54:01;3.90;99.90
23579;DHT22;11967;50.852;4.400;2022-12-18T08:56:28;3.90;99.90
23579;DHT22;11967;50.852;4.400;2022-12-18T08:58:55;3.80;99.90
23579;DHT22;11967;50.852;4.400;2022-12-18T09:01:22;4.00;99.90
23579;DHT22;11967;50.852;4.400;2022-12-18T09:03:49;4.10;99.90
23579;DHT22;11967;50.852;4.400;2022-12-18T09:06:16;4.10;99.90
23579;DHT22;11967;50.852;4.400;2022-12-18T09:08:43;4.10;99.90
23579;DHT22;11967;50.852;4.400;2022-12-18T09:11:26;4.10;99.90
23579;DHT22;11967;50.852;4.400;2022-12-18T09:13:53;4.20;99.90
23579;DHT22;11967;50.852;4.400;2022-12-18T09:16:19;4.20;99.90
23579;DHT22;11967;50.852;4.400;2022-12-18T09:18:46;4.20;99.90
23579;DHT22;11967;50.852;4.400;2022-12-18T09:21:14;4.20;99.90
23579;DHT22;11967;50.852;4.400;2022-12-18T09:23:40;4.40;99.90
23579;DHT22;11967;50.852;4.400;2022-12-18T09:26:06;4.40;99.90
23579;DHT22;11967;50.852;4.400;2022-12-18T09:28:32;4.50;99.90
23579;DHT22;11967;50.852;4.400;2022-12-18T09:31:03;4.60;99.90
23579;DHT22;11967;50.852;4.400;2022-12-18T09:33:29;4.60;99.90
23579;DHT22;11967;50.852;4.400;2022-12-18T09:35:54;4.60;99.90
23579;DHT22;11967;50.852;4.400;2022-12-18T09:38:20;4.60;99.90
23579;DHT22;11967;50.852;4.400;2022-12-18T09:40:49;4.50;99.90
23579;DHT22;11967;50.852;4.400;2022-12-18T09:43:36;4.50;99.90
23579;DHT22;11967;50.852;4.400;2022-12-18T09:46:07;4.40;99.90
23579;DHT22;11967;50.852;4.400;2022-12-18T09:48:44;4.30;99.90
23579;DHT22;11967;50.852;4.400;2022-12-18T09:51:24;4.40;99.90
23579;DHT22;11967;50.852;4.400;2022-12-18T09:54:03;4.40;99.90
23579;DHT22;11967;50.852;4.400;2022-12-18T09:56:35;4.40;99.90
23579;DHT22;11967;50.852;4.400;2022-12-18T09:59:04;4.40;99.90
23579;DHT22;11967;50.852;4.400;2022-12-18T10:01:32;4.50;99.90
23579;DHT22;11967;50.852;4.400;2022-12-18T10:03:58;4.40;99.90
23579;DHT22;11967;50.852;4.400;2022-12-18T10:06:38;4.40;99.90
23579;DHT22;11967;50.852;4.400;2022-12-18T10:12:12;4.50;99.90
23579;DHT22;11967;50.852;4.400;2022-12-18T10:17:41;4.50;99.90
23579;DHT22;11967;50.852;4.400;2022-12-18T10:22:57;4.80;99.90
23579;DHT22;11967;50.852;4.400;2022-12-18T10:25:40;4.80;99.90
23579;DHT22;11967;50.852;4.400;2022-12-18T10:28:10;4.80;99.90
23579;DHT22;11967;50.852;4.400;2022-12-18T10:30:39;4.80;99.90
23579;DHT22;11967;50.852;4.400;2022-12-18T10:33:05;4.80;99.90
23579;DHT22;11967;50.852;4.400;2022-12-18T10:35:31;4.90;99.90
23579;DHT22;11967;50.852;4.400;2022-12-18T10:40:31;4.90;99.90
23579;DHT22;11967;50.852;4.400;2022-12-18T10:46:00;4.90;99.90
23579;DHT22;11967;50.852;4.400;2022-12-18T10:48:26;4.90;99.90
23579;DHT22;11967;50.852;4.400;2022-12-18T10:50:53;4.90;99.90
23579;DHT22;11967;50.852;4.400;2022-12-18T10:53:24;4.90;99.90
23579;DHT22;11967;50.852;4.400;2022-12-18T10:55:53;5.00;99.90
23579;DHT22;11967;50.852;4.400;2022-12-18T10:58:29;5.00;99.90
23579;DHT22;11967;50.852;4.400;2022-12-18T11:04:00;4.90;99.90
23579;DHT22;11967;50.852;4.400;2022-12-18T11:06:26;4.80;99.90
23579;DHT22;11967;50.852;4.400;2022-12-18T11:09:03;4.80;99.90
23579;DHT22;11967;50.852;4.400;2022-12-18T11:11:29;4.90;99.90
23579;DHT22;11967;50.852;4.400;2022-12-18T11:14:06;4.90;99.90
23579;DHT22;11967;50.852;4.400;2022-12-18T11:16:42;4.90;99.90
23579;DHT22;11967;50.852;4.400;2022-12-18T11:21:47;4.90;99.90
23579;DHT22;11967;50.852;4.400;2022-12-18T11:24:39;5.00;99.90
23579;DHT22;11967;50.852;4.400;2022-12-18T11:27:06;4.90;99.90
23579;DHT22;11967;50.852;4.400;2022-12-18T11:29:41;4.90;99.90
23579;DHT22;11967;50.852;4.400;2022-12-18T11:34:49;5.00;99.90
23579;DHT22;11967;50.852;4.400;2022-12-18T11:37:17;4.90;99.90
23579;DHT22;11967;50.852;4.400;2022-12-18T11:40:09;4.90;99.90
23579;DHT22;11967;50.852;4.400;2022-12-18T11:42:41;4.90;99.90
23579;DHT22;11967;50.852;4.400;2022-12-18T11:50:18;5.10;99.90
23579;DHT22;11967;50.852;4.400;2022-12-18T11:52:44;5.10;99.90
23579;DHT22;11967;50.852;4.400;2022-12-18T11:55:16;5.10;99.90
23579;DHT22;11967;50.852;4.400;2022-12-18T11:58:03;5.00;99.90
23579;DHT22;11967;50.852;4.400;2022-12-18T12:00:38;5.10;99.90
23579;DHT22;11967;50.852;4.400;2022-12-18T12:03:36;5.10;99.90
23579;DHT22;11967;50.852;4.400;2022-12-18T12:06:17;5.10;99.90
23579;DHT22;11967;50.852;4.400;2022-12-18T12:09:27;5.10;99.90
23579;DHT22;11967;50.852;4.400;2022-12-18T12:15:21;5.20;99.90
23579;DHT22;11967;50.852;4.400;2022-12-18T12:17:57;5.20;99.90
23579;DHT22;11967;50.852;4.400;2022-12-18T12:20:27;5.20;99.90
23579;DHT22;11967;50.852;4.400;2022-12-18T12:23:15;5.20;99.90
23579;DHT22;11967;50.852;4.400;2022-12-18T12:25:48;5.20;99.90
23579;DHT22;11967;50.852;4.400;2022-12-18T12:28:44;5.30;99.90
23579;DHT22;11967;50.852;4.400;2022-12-18T12:39:35;5.40;99.90
23579;DHT22;11967;50.852;4.400;2022-12-18T12:42:04;5.40;99.90
23579;DHT22;11967;50.852;4.400;2022-12-18T12:44:56;5.40;99.90
23579;DHT22;11967;50.852;4.400;2022-12-18T12:47:28;5.40;99.90
23579;DHT22;11967;50.852;4.400;2022-12-18T12:49:57;5.40;99.90
23579;DHT22;11967;50.852;4.400;2022-12-18T12:52:37;5.30;99.90
23579;DHT22;11967;50.852;4.400;2022-12-18T12:55:07;5.30;99.90
23579;DHT22;11967;50.852;4.400;2022-12-18T12:57:41;5.40;99.90
23579;DHT22;11967;50.852;4.400;2022-12-18T13:00:15;5.50;99.90
23579;DHT22;11967;50.852;4.400;2022-12-18T13:05:44;5.40;99.90
23579;DHT22;11967;50.852;4.400;2022-12-18T13:08:25;5.50;99.90
23579;DHT22;11967;50.852;4.400;2022-12-18T13:10:52;5.50;99.90
23579;DHT22;11967;50.852;4.400;2022-12-18T13:13:58;5.60;99.90
23579;DHT22;11967;50.852;4.400;2022-12-18T13:16:25;5.60;99.90
23579;DHT22;11967;50.852;4.400;2022-12-18T13:18:55;5.50;99.90
23579;DHT22;11967;50.852;4.400;2022-12-18T13:21:24;5.60;99.90
23579;DHT22;11967;50.852;4.400;2022-12-18T13:23:53;5.50;99.90
23579;DHT22;11967;50.852;4.400;2022-12-18T13:34:28;5.50;99.90
23579;DHT22;11967;50.852;4.400;2022-12-18T13:37:34;5.50;99.90
23579;DHT22;11967;50.852;4.400;2022-12-18T13:39:44;5.50;99.90
23579;DHT22;11967;50.852;4.400;2022-12-18T13:44:55;5.40;99.90
23579;DHT22;11967;50.852;4.400;2022-12-18T13:47:35;5.40;99.90
23579;DHT22;11967;50.852;4.400;2022-12-18T13:50:23;5.40;99.90
23579;DHT22;11967;50.852;4.400;2022-12-18T13:52:50;5.50;99.90
23579;DHT22;11967;50.852;4.400;2022-12-18T13:55:19;5.40;99.90
23579;DHT22;11967;50.852;4.400;2022-12-18T13:57:45;5.30;99.90
23579;DHT22;11967;50.852;4.400;2022-12-18T14:02:49;5.20;99.90
23579;DHT22;11967;50.852;4.400;2022-12-18T14:05:25;5.30;99.90
23579;DHT22;11967;50.852;4.400;2022-12-18T14:07:52;5.20;99.90
23579;DHT22;11967;50.852;4.400;2022-12-18T14:10:18;5.30;99.90
23579;DHT22;11967;50.852;4.400;2022-12-18T14:12:47;5.20;99.90
23579;DHT22;11967;50.852;4.400;2022-12-18T14:18:20;5.20;99.90
23579;DHT22;11967;50.852;4.400;2022-12-18T14:20:50;5.20;99.90
23579;DHT22;11967;50.852;4.400;2022-12-18T14:23:37;5.10;99.90
23579;DHT22;11967;50.852;4.400;2022-12-18T14:26:21;5.00;99.90
23579;DHT22;11967;50.852;4.400;2022-12-18T14:28:47;5.10;99.90
23579;DHT22;11967;50.852;4.400;2022-12-18T14:31:24;5.10;99.90
23579;DHT22;11967;50.852;4.400;2022-12-18T14:33:51;5.10;99.90
23579;DHT22;11967;50.852;4.400;2022-12-18T14:36:20;5.00;99.90
23579;DHT22;11967;50.852;4.400;2022-12-18T14:38:56;5.10;99.90
23579;DHT22;11967;50.852;4.400;2022-12-18T14:41:22;5.10;99.90
23579;DHT22;11967;50.852;4.400;2022-12-18T14:43:50;5.20;99.90
23579;DHT22;11967;50.852;4.400;2022-12-18T14:48:55;5.10;99.90
23579;DHT22;11967;50.852;4.400;2022-12-18T14:51:22;5.10;99.90
23579;DHT22;11967;50.852;4.400;2022-12-18T14:54:03;5.10;99.90
23579;DHT22;11967;50.852;4.400;2022-12-18T14:56:41;5.20;99.90
23579;DHT22;11967;50.852;4.400;2022-12-18T14:59:21;5.20;99.90
23579;DHT22;11967;50.852;4.400;2022-12-18T15:02:18;5.10;99.90
23579;DHT22;11967;50.852;4.400;2022-12-18T15:04:45;5.10;99.90
23579;DHT22;11967;50.852;4.400;2022-12-18T15:07:14;5.20;99.90
23579;DHT22;11967;50.852;4.400;2022-12-18T15:09:43;5.20;99.90
23579;DHT22;11967;50.852;4.400;2022-12-18T15:12:24;5.20;99.90
23579;DHT22;11967;50.852;4.400;2022-12-18T15:14:51;5.30;99.90
23579;DHT22;11967;50.852;4.400;2022-12-18T15:17:22;5.40;99.90
23579;DHT22;11967;50.852;4.400;2022-12-18T15:19:49;5.30;99.90
23579;DHT22;11967;50.852;4.400;2022-12-18T15:24:51;5.30;99.90
23579;DHT22;11967;50.852;4.400;2022-12-18T15:27:31;5.30;99.90
23579;DHT22;11967;50.852;4.400;2022-12-18T15:32:27;5.30;99.90
23579;DHT22;11967;50.852;4.400;2022-12-18T15:37:33;5.30;99.90
23579;DHT22;11967;50.852;4.400;2022-12-18T15:39:59;5.30;99.90
23579;DHT22;11967;50.852;4.400;2022-12-18T15:42:25;5.30;99.90
23579;DHT22;11967;50.852;4.400;2022-12-18T15:45:12;5.20;99.90
23579;DHT22;11967;50.852;4.400;2022-12-18T15:47:39;5.30;99.90
23579;DHT22;11967;50.852;4.400;2022-12-18T15:50:05;5.30;99.90
23579;DHT22;11967;50.852;4.400;2022-12-18T15:52:39;5.30;99.90
23579;DHT22;11967;50.852;4.400;2022-12-18T15:55:09;5.30;99.90
23579;DHT22;11967;50.852;4.400;2022-12-18T15:57:54;5.20;99.90
23579;DHT22;11967;50.852;4.400;2022-12-18T16:00:19;5.30;99.90
23579;DHT22;11967;50.852;4.400;2022-12-18T16:02:45;5.30;99.90
23579;DHT22;11967;50.852;4.400;2022-12-18T16:05:15;5.30;99.90
23579;DHT22;11967;50.852;4.400;2022-12-18T16:07:42;5.30;99.90
23579;DHT22;11967;50.852;4.400;2022-12-18T16:10:08;5.30;99.90
23579;DHT22;11967;50.852;4.400;2022-12-18T16:12:34;5.20;99.90
23579;DHT22;11967;50.852;4.400;2022-12-18T16:15:00;5.20;99.90
23579;DHT22;11967;50.852;4.400;2022-12-18T16:17:26;5.10;99.90
23579;DHT22;11967;50.852;4.400;2022-12-18T16:19:51;5.30;99.90
23579;DHT22;11967;50.852;4.400;2022-12-18T16:22:21;5.20;99.90
23579;DHT22;11967;50.852;4.400;2022-12-18T16:24:48;5.30;99.90
23579;DHT22;11967;50.852;4.400;2022-12-18T16:27:13;5.20;99.90
23579;DHT22;11967;50.852;4.400;2022-12-18T16:29:39;5.20;99.90
23579;DHT22;11967;50.852;4.400;2022-12-18T16:32:05;5.20;99.90
23579;DHT22;11967;50.852;4.400;2022-12-18T16:34:34;5.20;99.90
23579;DHT22;11967;50.852;4.400;2022-12-18T16:37:04;5.30;99.90
23579;DHT22;11967;50.852;4.400;2022-12-18T16:39:30;5.30;99.90
23579;DHT22;11967;50.852;4.400;2022-12-18T16:41:56;5.40;99.90
23579;DHT22;11967;50.852;4.400;2022-12-18T16:44:22;5.30;99.90
23579;DHT22;11967;50.852;4.400;2022-12-18T16:46:48;5.30;99.90
23579;DHT22;11967;50.852;4.400;2022-12-18T16:49:15;5.30;99.90
23579;DHT22;11967;50.852;4.400;2022-12-18T16:51:41;5.30;99.90
23579;DHT22;11967;50.852;4.400;2022-12-18T16:54:08;5.40;99.90
23579;DHT22;11967;50.852;4.400;2022-12-18T16:56:34;5.40;99.90
23579;DHT22;11967;50.852;4.400;2022-12-18T16:59:01;5.40;99.90
23579;DHT22;11967;50.852;4.400;2022-12-18T17:01:28;5.40;99.90
23579;DHT22;11967;50.852;4.400;2022-12-18T17:04:02;5.50;99.90
23579;DHT22;11967;50.852;4.400;2022-12-18T17:06:31;5.60;99.90
23579;DHT22;11967;50.852;4.400;2022-12-18T17:08:58;5.60;99.90
23579;DHT22;11967;50.852;4.400;2022-12-18T17:11:25;5.50;99.90
23579;DHT22;11967;50.852;4.400;2022-12-18T17:13:52;5.60;99.90
23579;DHT22;11967;50.852;4.400;2022-12-18T17:16:20;5.60;99.90
23579;DHT22;11967;50.852;4.400;2022-12-18T17:18:46;5.70;99.90
23579;DHT22;11967;50.852;4.400;2022-12-18T17:21:12;5.70;99.90
23579;DHT22;11967;50.852;4.400;2022-12-18T17:23:42;5.60;99.90
23579;DHT22;11967;50.852;4.400;2022-12-18T17:26:09;5.70;99.90
23579;DHT22;11967;50.852;4.400;2022-12-18T17:28:36;5.60;99.90
23579;DHT22;11967;50.852;4.400;2022-12-18T17:31:19;5.70;99.90
23579;DHT22;11967;50.852;4.400;2022-12-18T17:33:45;5.70;99.90
23579;DHT22;11967;50.852;4.400;2022-12-18T17:36:11;5.70;99.90
23579;DHT22;11967;50.852;4.400;2022-12-18T17:38:38;5.60;99.90
23579;DHT22;11967;50.852;4.400;2022-12-18T17:41:05;5.60;99.90